Terminal Aerodrome Forecast
Issued by NWS Cleveland, OH

Home | Current Version | Previous Version | Graphics & Text | Print | Product List | Glossary On
Versions: 1 2 3 4 5 6 7 8 9 10 11 12 13 14 15 16 17 18 19
919
FTUS41 KCLE 161739
TAFYNG
TAF
KYNG 161739Z 1618/1718 35006KT P6SM SCT050
     FM170200 09004KT P6SM BKN250
     FM171300 14006KT P6SM BKN090
     FM171500 17006KT P6SM VCSH SCT040 OVC070=

USA.gov is the U.S. government's official web portal to all federal, state and local government web resources and services.